Time;durP1;ratioP1;P1;durP2;ratioP2;P2;SDS_P1;SDS_P2;PMS_P1;PMS_P2;Temp;Humidity;BMP_temperature;BMP_pressure;BME280_temperature;BME280_humidity;BME280_pressure;Samples;Min_cycle;Max_cycle;Signal;HPM_P1;HPM_P2
2021/04/25 00:01:39;;;;;;;6.90;6.40;;;;;;;9.91;65.83;96052.06;5101310;28;20027;-47
2021/04/25 00:04:14;;;;;;;7.57;6.50;;;;;;;9.86;66.05;96049.00;5101782;28;20101;-46
2021/04/25 00:06:41;;;;;;;7.50;6.90;;;;;;;9.79;66.46;96045.19;5097161;28;20657;-47
2021/04/25 00:09:07;;;;;;;7.50;6.80;;;;;;;9.75;67.18;96053.34;5100745;28;20032;-46
2021/04/25 00:11:33;;;;;;;7.15;6.50;;;;;;;9.71;66.84;96051.94;5102638;28;20052;-47
2021/04/25 00:13:58;;;;;;;6.85;6.22;;;;;;;9.71;66.88;96046.69;5099948;28;20121;-46
2021/04/25 00:16:26;;;;;;;5.50;5.10;;;;;;;9.72;66.22;96045.72;5084661;28;20036;-48
2021/04/25 00:18:52;;;;;;;9.18;5.53;;;;;;;9.67;66.67;96045.28;5092705;28;20159;-47
2021/04/25 00:21:21;;;;;;;6.22;5.65;;;;;;;9.60;66.99;96044.94;5096612;28;20832;-46
2021/04/25 00:23:47;;;;;;;15.57;11.18;;;;;;;9.55;67.08;96036.63;5096792;28;20027;-46
2021/04/25 00:26:12;;;;;;;13.38;11.98;;;;;;;9.55;67.19;96038.38;5092177;28;20043;-46
2021/04/25 00:28:38;;;;;;;11.02;9.85;;;;;;;9.54;67.06;96044.63;5099015;28;20016;-45
2021/04/25 00:31:04;;;;;;;7.82;7.03;;;;;;;9.55;66.96;96036.63;5099853;28;20107;-46
2021/04/25 00:33:30;;;;;;;7.40;6.70;;;;;;;9.52;66.99;96041.28;5095777;28;20096;-48
2021/04/25 00:35:56;;;;;;;10.10;8.48;;;;;;;9.44;67.79;96040.13;5091640;28;20035;-48
2021/04/25 00:38:22;;;;;;;7.05;6.35;;;;;;;9.39;67.66;96037.03;5096257;28;20042;-47
2021/04/25 00:40:48;;;;;;;8.45;7.65;;;;;;;9.35;68.11;96037.41;5092667;28;20514;-46
2021/04/25 00:43:14;;;;;;;7.20;6.55;;;;;;;9.27;67.86;96035.41;5099907;28;20027;-47
2021/04/25 00:45:40;;;;;;;7.03;5.57;;;;;;;9.26;67.83;96029.31;5100084;28;20432;-49
2021/04/25 00:48:06;;;;;;;8.68;5.35;;;;;;;9.30;67.70;96028.13;5095314;28;20067;-46
2021/04/25 00:50:33;;;;;;;6.38;5.93;;;;;;;9.32;68.14;96025.34;5093656;28;20023;-49
2021/04/25 00:52:59;;;;;;;6.15;5.68;;;;;;;9.33;67.15;96021.75;5094707;28;20035;-45
2021/04/25 00:55:28;;;;;;;6.10;5.60;;;;;;;9.34;66.95;96022.63;5095478;28;20055;-47
2021/04/25 00:57:56;;;;;;;6.13;5.63;;;;;;;9.37;67.05;96023.19;5096257;28;20015;-47
2021/04/25 01:00:23;;;;;;;7.10;5.90;;;;;;;9.30;67.97;96022.03;5097303;28;20067;-49
2021/04/25 01:02:49;;;;;;;6.18;5.63;;;;;;;9.24;68.01;96019.91;5095228;28;20020;-46
2021/04/25 01:05:16;;;;;;;5.85;5.45;;;;;;;9.19;68.00;96019.47;5096042;28;20019;-46
2021/04/25 01:07:43;;;;;;;6.07;5.30;;;;;;;9.09;68.48;96025.44;5102192;28;20377;-45
2021/04/25 01:10:10;;;;;;;6.47;5.88;;;;;;;9.08;68.40;96023.78;5093773;28;20103;-50
2021/04/25 01:12:37;;;;;;;6.47;5.20;;;;;;;9.01;68.21;96012.94;5094307;28;20020;-47
2021/04/25 01:15:04;;;;;;;5.50;5.10;;;;;;;8.98;68.45;96015.81;5102446;28;20113;-51
2021/04/25 01:17:29;;;;;;;5.65;5.15;;;;;;;8.97;68.19;96029.06;5095535;28;20024;-47
2021/04/25 01:19:57;;;;;;;6.38;5.68;;;;;;;9.00;68.31;96029.63;5098752;28;20399;-46
2021/04/25 01:22:23;;;;;;;5.97;5.30;;;;;;;8.95;68.78;96028.34;5084903;28;20031;-46
2021/04/25 01:24:48;;;;;;;5.95;5.60;;;;;;;8.91;69.12;96030.41;5102281;28;20020;-45
2021/04/25 01:27:14;;;;;;;5.85;5.25;;;;;;;8.84;69.24;96030.03;5098201;28;20075;-45
2021/04/25 01:29:40;;;;;;;6.68;6.18;;;;;;;8.81;69.44;96032.91;5100391;28;20551;-46
2021/04/25 01:32:06;;;;;;;6.30;5.70;;;;;;;8.82;69.53;96026.72;5099403;28;20085;-45
2021/04/25 01:34:32;;;;;;;5.68;5.30;;;;;;;8.76;69.72;96036.88;5100461;28;20055;-46
2021/04/25 01:36:57;;;;;;;6.18;5.65;;;;;;;8.72;69.84;96031.00;5101348;28;20055;-48
2021/04/25 01:39:25;;;;;;;8.43;7.63;;;;;;;8.73;69.49;96030.06;5102053;28;20028;-45
2021/04/25 01:41:51;;;;;;;7.15;6.55;;;;;;;8.71;69.41;96037.22;5099369;28;20345;-48
2021/04/25 01:44:16;;;;;;;8.10;6.95;;;;;;;8.65;70.46;96033.31;5099377;28;20024;-47
2021/04/25 01:46:42;;;;;;;6.80;5.68;;;;;;;8.63;69.42;96037.00;5098349;28;20024;-47
2021/04/25 01:49:08;;;;;;;6.32;5.82;;;;;;;8.62;69.91;96037.97;5101093;28;20122;-46
2021/04/25 01:51:34;;;;;;;7.93;5.45;;;;;;;8.59;69.44;96041.66;5100142;28;20095;-45
2021/04/25 01:53:59;;;;;;;5.72;5.22;;;;;;;8.57;70.01;96041.78;5099961;28;20081;-48
2021/04/25 01:56:25;;;;;;;6.47;5.78;;;;;;;8.53;69.76;96035.13;5097576;28;20024;-47
2021/04/25 01:58:51;;;;;;;5.53;5.07;;;;;;;8.44;70.19;96034.03;5100524;28;20044;-48
2021/04/25 02:01:16;;;;;;;5.78;5.28;;;;;;;8.44;69.72;96020.03;5097328;28;20019;-46
2021/04/25 02:03:42;;;;;;;6.40;5.82;;;;;;;8.46;69.61;96028.63;5105107;28;20031;-47
2021/04/25 02:06:08;;;;;;;5.47;5.10;;;;;;;8.45;69.79;96019.09;5101027;28;20028;-46
2021/04/25 02:08:33;;;;;;;5.93;5.32;;;;;;;8.40;70.19;96026.50;5097486;28;20032;-50
2021/04/25 02:10:59;;;;;;;5.95;5.45;;;;;;;8.33;70.05;96023.50;5103245;28;20083;-48
2021/04/25 02:13:25;;;;;;;6.15;5.57;;;;;;;8.31;70.35;96021.03;5104438;28;20023;-47
2021/04/25 02:15:50;;;;;;;5.68;5.22;;;;;;;8.32;70.27;96022.69;5104951;28;20135;-49
2021/04/25 02:18:17;;;;;;;6.10;5.70;;;;;;;8.34;69.81;96022.56;5105966;28;20399;-49
2021/04/25 02:20:42;;;;;;;6.85;5.82;;;;;;;8.30;70.50;96024.59;5102987;28;20426;-48
2021/04/25 02:23:08;;;;;;;5.97;5.53;;;;;;;8.25;70.72;96031.97;5106247;28;20016;-49
2021/04/25 02:25:33;;;;;;;6.05;5.63;;;;;;;8.17;71.20;96027.31;5105136;28;20024;-49
2021/04/25 02:27:59;;;;;;;6.20;5.70;;;;;;;8.16;71.08;96028.28;5108848;28;20020;-49
2021/04/25 02:30:33;;;;;;;6.47;5.97;;;;;;;8.12;72.87;96026.03;5108075;28;20024;-46
2021/04/25 02:32:59;;;;;;;8.68;6.18;;;;;;;8.09;72.00;96021.03;5101882;28;20114;-52
2021/04/25 02:35:27;;;;;;;6.30;5.80;;;;;;;8.15;71.28;96021.38;5101609;28;20441;-46
2021/04/25 02:37:54;;;;;;;6.35;5.88;;;;;;;8.06;71.97;96014.22;5105595;28;20506;-46
2021/04/25 02:40:24;;;;;;;7.03;6.43;;;;;;;8.03;72.22;96017.91;5105248;28;20024;-46
2021/04/25 02:42:52;;;;;;;6.70;6.10;;;;;;;8.03;71.89;96019.69;5103534;28;20024;-46
2021/04/25 02:45:18;;;;;;;6.47;5.88;;;;;;;8.02;71.74;96010.97;5106285;28;20054;-46
2021/04/25 02:47:51;;;;;;;7.20;6.60;;;;;;;8.05;72.09;96012.56;5103526;28;20487;-46
2021/04/25 02:50:18;;;;;;;6.45;5.97;;;;;;;8.06;71.32;96002.88;5100890;28;20020;-47
2021/04/25 02:52:44;;;;;;;7.05;6.45;;;;;;;8.02;71.51;96002.31;5103421;28;20027;-46
2021/04/25 02:55:11;;;;;;;7.35;6.70;;;;;;;7.92;72.13;96006.56;5102369;28;20039;-46
2021/04/25 02:57:38;;;;;;;7.13;6.47;;;;;;;7.92;72.18;96007.41;5102067;28;20089;-47
2021/04/25 03:00:08;;;;;;;6.75;6.25;;;;;;;7.94;71.75;96005.50;5103801;28;20074;-46
2021/04/25 03:02:34;;;;;;;6.85;6.13;;;;;;;7.87;72.16;95997.28;5103625;28;20016;-47
2021/04/25 03:05:00;;;;;;;6.50;5.95;;;;;;;7.85;71.88;95999.19;5106640;28;20364;-46
2021/04/25 03:07:25;;;;;;;7.10;6.40;;;;;;;7.85;72.09;95996.56;5100070;28;20483;-46
2021/04/25 03:09:51;;;;;;;7.50;6.90;;;;;;;7.83;72.06;95997.63;5109263;28;20484;-46
2021/04/25 03:12:16;;;;;;;6.85;6.32;;;;;;;7.72;72.76;95993.19;5105536;28;20376;-46
2021/04/25 03:14:42;;;;;;;9.50;7.22;;;;;;;7.67;72.79;95990.94;5098750;28;20024;-48
2021/04/25 03:17:07;;;;;;;7.05;6.45;;;;;;;7.67;73.08;95997.97;5101282;28;20028;-48
2021/04/25 03:19:33;;;;;;;7.90;7.00;;;;;;;7.64;73.22;95992.97;5100296;28;20020;-47
2021/04/25 03:21:59;;;;;;;7.25;6.65;;;;;;;7.61;72.90;95994.00;5108462;28;20028;-48
2021/04/25 03:24:25;;;;;;;7.60;6.53;;;;;;;7.62;73.00;95990.44;5107880;28;20503;-47
2021/04/25 03:26:50;;;;;;;7.70;7.10;;;;;;;7.62;72.96;95987.00;5102970;28;20036;-49
2021/04/25 03:29:16;;;;;;;7.88;7.13;;;;;;;7.59;72.71;95990.66;5106246;28;20031;-46
2021/04/25 03:31:42;;;;;;;8.20;7.35;;;;;;;7.59;73.31;95995.91;5100670;28;20024;-46
2021/04/25 03:34:08;;;;;;;7.80;7.18;;;;;;;7.56;72.63;95990.91;5098983;28;20815;-46
2021/04/25 03:36:33;;;;;;;8.02;7.30;;;;;;;7.54;73.17;95996.28;5082544;28;20116;-48
2021/04/25 03:38:59;;;;;;;6.90;6.20;;;;;;;7.51;73.57;95990.44;5101280;28;20024;-46
2021/04/25 03:41:26;;;;;;;7.07;6.47;;;;;;;7.43;73.39;95984.00;5101261;28;20073;-48
2021/04/25 03:43:53;;;;;;;7.72;6.82;;;;;;;7.42;73.68;95981.47;5101290;28;20079;-48
2021/04/25 03:46:19;;;;;;;7.03;6.43;;;;;;;7.43;73.87;95988.38;5101180;28;20061;-48
2021/04/25 03:48:44;;;;;;;6.45;5.85;;;;;;;7.50;73.08;95984.34;5106847;28;20079;-48
2021/04/25 03:51:10;;;;;;;7.22;6.60;;;;;;;7.55;72.99;95979.59;5100628;28;20027;-48
2021/04/25 03:53:37;;;;;;;6.80;6.18;;;;;;;7.57;73.01;95977.72;5104927;28;20080;-46
2021/04/25 03:56:03;;;;;;;8.50;6.57;;;;;;;7.55;73.23;95976.13;5107432;28;20486;-47
2021/04/25 03:58:29;;;;;;;7.22;6.65;;;;;;;7.43;73.72;95973.50;5099156;28;20039;-47
2021/04/25 04:00:54;;;;;;;7.40;6.80;;;;;;;7.41;73.84;95974.56;5103752;28;20110;-46
2021/04/25 04:03:20;;;;;;;6.68;6.18;;;;;;;7.43;73.67;95978.75;5104166;28;20071;-48
2021/04/25 04:05:45;;;;;;;6.25;5.85;;;;;;;7.50;73.40;95973.03;5111197;28;20399;-50
2021/04/25 04:08:11;;;;;;;10.88;6.13;;;;;;;7.48;73.78;95969.69;5107257;28;20118;-48
2021/04/25 04:10:37;;;;;;;7.35;6.65;;;;;;;7.43;73.93;95970.91;5099022;28;20112;-47
2021/04/25 04:13:02;;;;;;;7.38;6.68;;;;;;;7.40;73.88;95965.84;5098313;28;20655;-46
2021/04/25 04:15:28;;;;;;;8.68;7.63;;;;;;;7.41;73.74;95962.31;5102853;28;20502;-47
2021/04/25 04:17:53;;;;;;;8.43;6.88;;;;;;;7.43;73.57;95956.94;5102688;28;20695;-49
2021/04/25 04:20:19;;;;;;;10.10;6.82;;;;;;;7.43;73.19;95960.41;5099078;28;20024;-47
2021/04/25 04:22:44;;;;;;;7.78;7.03;;;;;;;7.45;73.51;95966.38;5104634;28;20133;-46
2021/04/25 04:25:10;;;;;;;11.02;6.57;;;;;;;7.40;73.37;95960.63;5102080;28;20039;-47
2021/04/25 04:27:36;;;;;;;11.73;7.30;;;;;;;7.40;74.12;95962.41;5104651;28;20501;-46
2021/04/25 04:30:03;;;;;;;8.48;6.80;;;;;;;7.43;74.11;95960.41;5100709;28;20065;-47
2021/04/25 04:32:28;;;;;;;7.00;6.38;;;;;;;7.47;73.72;95962.78;5102628;28;20016;-46
2021/04/25 04:34:54;;;;;;;6.70;6.20;;;;;;;7.41;74.51;95962.31;5101103;28;20034;-46
2021/04/25 04:37:19;;;;;;;7.13;6.32;;;;;;;7.45;73.95;95960.28;5100768;28;20059;-47
2021/04/25 04:39:45;;;;;;;7.70;6.95;;;;;;;7.43;73.70;95949.94;5102405;28;20051;-45
2021/04/25 04:42:11;;;;;;;12.98;8.85;;;;;;;7.41;73.65;95949.22;5099820;28;20039;-46
2021/04/25 04:44:36;;;;;;;14.52;12.18;;;;;;;7.40;73.85;95947.53;5103834;28;20048;-46
2021/04/25 04:47:02;;;;;;;18.88;12.30;;;;;;;7.38;74.24;95941.56;5082320;28;20019;-48
2021/04/25 04:49:28;;;;;;;25.38;19.05;;;;;;;7.39;73.71;95945.84;5100265;28;20103;-46
2021/04/25 04:51:53;;;;;;;28.00;19.20;;;;;;;7.47;73.49;95942.66;5101446;28;20051;-47
2021/04/25 04:54:19;;;;;;;32.80;23.00;;;;;;;7.53;72.83;95947.44;5101017;28;20055;-46
2021/04/25 04:56:44;;;;;;;27.60;19.95;;;;;;;7.55;73.23;95944.69;5098259;28;20031;-46
2021/04/25 04:59:10;;;;;;;20.90;16.55;;;;;;;7.47;74.16;95957.56;5102916;28;20036;-46
2021/04/25 05:01:36;;;;;;;25.73;15.85;;;;;;;7.42;74.59;95955.28;5098421;28;20058;-46
2021/04/25 05:04:02;;;;;;;21.35;13.77;;;;;;;7.60;73.24;95956.50;5103667;28;20403;-46
2021/04/25 05:06:28;;;;;;;17.17;13.48;;;;;;;7.64;72.97;95949.25;5102669;28;20028;-46
2021/04/25 05:08:53;;;;;;;19.52;13.63;;;;;;;7.60;73.61;95956.50;5099832;28;20031;-47
2021/04/25 05:11:19;;;;;;;17.85;12.70;;;;;;;7.67;73.48;95956.88;5102526;28;20035;-47
2021/04/25 05:13:44;;;;;;;16.92;12.68;;;;;;;7.73;73.17;95966.88;5101342;28;20024;-46
2021/04/25 05:16:10;;;;;;;15.95;11.63;;;;;;;7.78;73.23;95966.53;5100399;28;20031;-46
2021/04/25 05:18:37;;;;;;;17.30;11.48;;;;;;;7.80;73.03;95961.16;5101947;28;20052;-46
2021/04/25 05:21:04;;;;;;;13.27;11.15;;;;;;;7.84;73.05;95962.59;5099211;28;20487;-46
2021/04/25 05:23:29;;;;;;;18.40;11.25;;;;;;;7.84;73.10;95960.81;5102595;28;20016;-47
2021/04/25 05:25:55;;;;;;;18.27;10.90;;;;;;;7.81;73.53;95950.56;5099093;28;20020;-49
2021/04/25 05:28:20;;;;;;;16.40;11.45;;;;;;;7.84;73.48;95947.72;5102116;28;20047;-47
2021/04/25 05:30:46;;;;;;;14.90;11.48;;;;;;;7.83;74.50;95943.41;5099232;28;20035;-48
2021/04/25 05:33:11;;;;;;;17.23;12.13;;;;;;;7.83;74.11;95953.91;5103993;28;20620;-46
2021/04/25 05:35:37;;;;;;;12.25;10.95;;;;;;;7.82;74.58;95954.00;5101728;28;20535;-46
2021/04/25 05:38:03;;;;;;;13.77;12.30;;;;;;;7.85;74.03;95956.41;5080797;28;20015;-47
2021/04/25 05:40:28;;;;;;;18.00;14.90;;;;;;;7.90;73.73;95951.66;5100296;28;20391;-45
2021/04/25 05:42:54;;;;;;;14.70;13.18;;;;;;;7.89;73.82;95948.19;5099833;28;20487;-46
2021/04/25 05:45:22;;;;;;;17.42;11.75;;;;;;;7.86;75.04;95942.38;5100390;28;20040;-47
2021/04/25 05:47:58;;;;;;;15.07;13.48;;;;;;;7.85;74.87;95956.41;5102328;28;20073;-46
2021/04/25 05:50:28;;;;;;;15.52;13.38;;;;;;;7.81;74.95;95955.81;5104038;28;20043;-46
2021/04/25 05:52:54;;;;;;;17.77;13.27;;;;;;;7.81;74.81;95962.81;5103385;28;20099;-49
2021/04/25 05:55:20;;;;;;;15.63;12.90;;;;;;;7.93;74.47;95953.19;5103327;28;20390;-46
2021/04/25 05:57:46;;;;;;;20.10;13.00;;;;;;;8.01;74.27;95954.25;5103812;28;20077;-47
2021/04/25 06:00:16;;;;;;;14.52;13.10;;;;;;;8.12;73.45;95949.97;5107205;28;20031;-47
2021/04/25 06:02:41;;;;;;;15.20;13.70;;;;;;;8.38;72.71;95950.53;5104302;28;20440;-47
2021/04/25 06:05:08;;;;;;;13.70;12.38;;;;;;;8.80;71.63;95951.66;5103324;28;20505;-46
2021/04/25 06:07:33;;;;;;;15.30;12.27;;;;;;;9.20;70.56;95942.31;5105932;28;20039;-47
2021/04/25 06:09:59;;;;;;;11.38;8.13;;;;;;;9.56;70.06;95953.31;5101577;28;20016;-47
2021/04/25 06:12:24;;;;;;;9.18;7.47;;;;;;;9.97;68.49;95943.72;5105385;28;20011;-48
2021/04/25 06:14:50;;;;;;;7.07;6.38;;;;;;;10.60;66.28;95942.69;5105912;28;20077;-46
2021/04/25 06:17:16;;;;;;;7.95;6.25;;;;;;;11.29;64.52;95941.88;5102729;28;20028;-49
2021/04/25 06:19:41;;;;;;;9.75;6.85;;;;;;;11.85;63.28;95937.59;5104267;28;20024;-47
2021/04/25 06:22:09;;;;;;;10.63;7.45;;;;;;;12.58;60.83;95930.75;5103947;28;20027;-49
2021/04/25 06:24:35;;;;;;;9.43;6.70;;;;;;;13.08;58.92;95927.78;5100231;28;20051;-48
2021/04/25 06:27:01;;;;;;;10.57;6.65;;;;;;;13.50;57.72;95926.31;5104427;28;20026;-48
2021/04/25 06:29:29;;;;;;;8.23;6.32;;;;;;;14.07;56.17;95925.00;5105425;28;20130;-47
2021/04/25 06:31:54;;;;;;;6.80;6.20;;;;;;;14.50;54.31;95923.19;5113176;28;20019;-48
2021/04/25 06:34:20;;;;;;;6.47;5.90;;;;;;;14.78;53.08;95925.63;5105831;28;20024;-47
2021/04/25 06:36:45;;;;;;;8.13;5.43;;;;;;;14.96;52.59;95917.53;5102440;28;20171;-48
2021/04/25 06:39:12;;;;;;;5.90;5.35;;;;;;;15.27;49.71;95916.91;5101005;28;20055;-47
2021/04/25 06:41:37;;;;;;;5.40;4.90;;;;;;;15.63;51.15;95914.84;5101550;28;20052;-47
2021/04/25 06:44:04;;;;;;;6.43;4.40;;;;;;;16.21;48.94;95910.25;5082020;28;20095;-48
2021/04/25 06:46:31;;;;;;;4.05;3.78;;;;;;;16.64;46.63;95922.34;5102229;28;20030;-48
2021/04/25 06:48:56;;;;;;;4.32;4.03;;;;;;;16.98;44.25;95910.53;5099791;28;20020;-47
2021/04/25 06:51:22;;;;;;;4.15;3.75;;;;;;;17.30;42.37;95913.97;5110273;28;20023;-47
2021/04/25 06:53:48;;;;;;;4.88;3.85;;;;;;;17.57;41.25;95911.75;5103754;28;20019;-49
2021/04/25 06:56:14;;;;;;;3.65;3.45;;;;;;;17.29;42.08;95913.16;5105051;28;20028;-49
2021/04/25 06:58:40;;;;;;;3.33;3.13;;;;;;;17.72;40.85;95917.13;5099501;28;20047;-49
2021/04/25 07:01:05;;;;;;;6.93;3.67;;;;;;;17.43;41.84;95918.69;5104355;28;20027;-49
2021/04/25 07:03:31;;;;;;;4.03;3.72;;;;;;;17.56;42.16;95913.59;5085982;28;20023;-49
2021/04/25 07:05:57;;;;;;;6.05;3.72;;;;;;;18.08;39.42;95915.63;5105379;28;20414;-49
2021/04/25 07:08:24;;;;;;;6.75;3.83;;;;;;;18.03;40.07;95914.31;5104579;28;20050;-52
2021/04/25 07:10:52;;;;;;;5.40;3.80;;;;;;;18.30;38.33;95914.69;5099224;28;20020;-49
2021/04/25 07:13:19;;;;;;;3.97;3.60;;;;;;;18.28;38.06;95915.88;5098675;28;20024;-52
2021/04/25 07:15:45;;;;;;;4.40;4.00;;;;;;;18.21;37.39;95907.78;5102142;28;20028;-47
2021/04/25 07:18:11;;;;;;;5.82;4.00;;;;;;;18.13;37.79;95898.06;5104940;28;20034;-51
2021/04/25 07:20:37;;;;;;;3.80;3.50;;;;;;;18.16;37.36;95896.84;5099041;28;20024;-52
2021/04/25 07:23:02;;;;;;;5.68;3.60;;;;;;;18.08;37.20;95894.31;5105150;28;20080;-47
2021/04/25 07:25:28;;;;;;;4.07;3.78;;;;;;;17.92;39.26;95895.28;5107321;28;20047;-48
2021/04/25 07:27:54;;;;;;;4.28;3.70;;;;;;;18.33;38.87;95895.66;5105385;28;20027;-49
2021/04/25 07:30:20;;;;;;;5.78;3.60;;;;;;;18.24;38.59;95907.44;5103939;28;20031;-49
2021/04/25 07:32:45;;;;;;;7.15;3.72;;;;;;;18.71;37.26;95897.31;5101851;28;20983;-48
2021/04/25 07:35:11;;;;;;;6.65;4.07;;;;;;;19.23;36.40;95899.09;5101647;28;20034;-49
2021/04/25 07:37:37;;;;;;;4.93;3.83;;;;;;;19.45;35.80;95891.88;5098984;28;20048;-47
2021/04/25 07:40:05;;;;;;;4.47;4.07;;;;;;;19.20;37.34;95896.81;5103700;28;20557;-48
2021/04/25 07:42:31;;;;;;;9.15;4.40;;;;;;;19.39;35.55;95892.66;5102283;28;20138;-45
2021/04/25 07:44:56;;;;;;;7.00;4.63;;;;;;;19.32;36.12;95890.78;5098606;28;20829;-47
2021/04/25 07:47:22;;;;;;;4.63;4.22;;;;;;;19.14;36.44;95887.72;5098939;28;20024;-48
2021/04/25 07:49:47;;;;;;;4.70;4.30;;;;;;;19.57;36.37;95881.53;5103475;28;20020;-48
2021/04/25 07:52:13;;;;;;;4.65;4.20;;;;;;;20.16;32.98;95880.28;5097746;28;20054;-48
2021/04/25 07:54:38;;;;;;;4.93;4.10;;;;;;;19.69;35.30;95884.50;5104052;28;20072;-47
2021/04/25 07:57:04;;;;;;;5.90;4.07;;;;;;;20.18;33.96;95874.72;5102126;28;20036;-46
2021/04/25 07:59:31;;;;;;;6.07;4.57;;;;;;;20.23;33.04;95866.13;5098545;28;20052;-48
2021/04/25 08:01:56;;;;;;;6.28;4.90;;;;;;;20.56;33.55;95870.78;5105537;28;20027;-48
2021/04/25 08:04:22;;;;;;;4.60;3.80;;;;;;;20.46;33.67;95871.16;5101685;28;20027;-47
2021/04/25 08:06:47;;;;;;;5.78;4.00;;;;;;;20.58;32.92;95876.75;5096713;28;20526;-46
2021/04/25 08:09:13;;;;;;;4.35;3.90;;;;;;;20.36;33.25;95868.00;5103605;28;20034;-49
2021/04/25 08:11:38;;;;;;;3.90;3.60;;;;;;;20.27;33.07;95865.53;5100152;28;20042;-47
2021/04/25 08:14:04;;;;;;;3.80;3.50;;;;;;;20.83;31.26;95868.22;5100804;28;20107;-47
2021/04/25 08:16:30;;;;;;;4.18;3.88;;;;;;;20.55;31.32;95871.78;5099825;28;20020;-46
2021/04/25 08:18:55;;;;;;;5.43;3.95;;;;;;;20.15;32.13;95867.94;5103363;28;20026;-45
2021/04/25 08:21:24;;;;;;;6.20;3.85;;;;;;;20.03;32.75;95865.00;5099933;28;20031;-48
2021/04/25 08:23:50;;;;;;;3.97;3.67;;;;;;;20.40;32.01;95867.44;5096934;28;20399;-46
2021/04/25 08:26:15;;;;;;;7.10;3.78;;;;;;;20.42;31.71;95876.06;5106598;28;20024;-47
2021/04/25 08:28:41;;;;;;;4.65;3.42;;;;;;;20.01;33.70;95882.25;5106782;28;20019;-46
2021/04/25 08:31:06;;;;;;;4.10;3.58;;;;;;;20.04;33.45;95880.00;5103824;28;20024;-46
2021/04/25 08:33:32;;;;;;;3.63;3.33;;;;;;;20.02;32.38;95884.72;5105217;28;20030;-45
2021/04/25 08:35:57;;;;;;;4.18;3.88;;;;;;;19.85;33.64;95884.16;5106166;28;20490;-45
2021/04/25 08:38:23;;;;;;;3.90;3.60;;;;;;;19.35;34.72;95883.38;5102781;28;20423;-45
2021/04/25 08:40:49;;;;;;;3.80;3.50;;;;;;;19.88;33.13;95889.09;5100327;28;20024;-45
2021/04/25 08:43:14;;;;;;;3.83;3.53;;;;;;;20.01;33.90;95893.78;5100295;28;20016;-46
2021/04/25 08:45:43;;;;;;;3.95;3.60;;;;;;;20.08;33.33;95888.44;5101641;28;20089;-47
2021/04/25 08:48:14;;;;;;;3.80;3.45;;;;;;;20.16;32.12;95890.13;5104571;28;20075;-47
2021/04/25 08:50:41;;;;;;;4.28;3.97;;;;;;;20.12;32.76;95892.41;5095688;28;20149;-47
2021/04/25 08:53:07;;;;;;;4.88;3.85;;;;;;;20.43;32.77;95887.56;5102223;28;20028;-46
2021/04/25 08:55:33;;;;;;;3.97;3.58;;;;;;;20.90;31.36;95885.09;5098591;28;20686;-46
2021/04/25 08:57:59;;;;;;;4.97;4.47;;;;;;;21.05;30.61;95884.91;5096164;28;20028;-45
2021/04/25 09:00:24;;;;;;;5.55;4.82;;;;;;;20.56;32.03;95876.94;5105204;28;20035;-47
2021/04/25 09:02:54;;;;;;;4.35;4.00;;;;;;;20.66;31.57;95878.41;5099169;28;20016;-47
2021/04/25 09:05:20;;;;;;;4.43;3.83;;;;;;;20.51;31.87;95874.03;5100186;28;20557;-46
2021/04/25 09:07:54;;;;;;;11.45;5.28;;;;;;;19.94;33.29;95882.19;5102004;28;20114;-45
2021/04/25 09:10:25;;;;;;;4.47;4.18;;;;;;;20.00;32.65;95880.59;5103845;28;20537;-44
2021/04/25 09:12:50;;;;;;;4.22;3.92;;;;;;;20.16;32.75;95882.94;5102406;28;20034;-46
2021/04/25 09:15:16;;;;;;;4.57;4.18;;;;;;;19.98;33.23;95890.66;5101228;28;20040;-49
2021/04/25 09:17:55;;;;;;;4.35;4.03;;;;;;;20.13;32.86;95882.50;5103934;28;20055;-47
2021/04/25 09:20:39;;;;;;;5.30;4.22;;;;;;;20.21;32.59;95874.31;5096339;28;20023;-46
2021/04/25 09:23:07;;;;;;;4.57;4.18;;;;;;;20.29;32.83;95863.47;5098579;28;20024;-45
2021/04/25 09:25:33;;;;;;;6.30;3.95;;;;;;;20.40;32.81;95870.09;5099456;28;20028;-46
2021/04/25 09:28:16;;;;;;;4.35;4.00;;;;;;;20.42;33.16;95862.69;5098477;28;20031;-45
2021/04/25 09:31:03;;;;;;;4.28;3.97;;;;;;;20.79;32.54;95862.41;5099736;28;20039;-45
2021/04/25 09:33:48;;;;;;;3.63;3.28;;;;;;;20.65;31.61;95858.03;5099222;28;20110;-46
2021/04/25 09:36:20;;;;;;;5.75;4.43;;;;;;;20.74;31.75;95857.66;5101393;28;20054;-46
2021/04/25 09:38:46;;;;;;;4.30;3.90;;;;;;;20.76;32.62;95846.75;5098929;28;20042;-47
2021/04/25 09:41:32;;;;;;;6.55;4.05;;;;;;;20.96;33.34;95856.69;5100215;28;20458;-46
2021/04/25 09:43:58;;;;;;;5.45;4.95;;;;;;;21.23;32.39;95854.03;5099047;28;20032;-48
2021/04/25 09:46:24;;;;;;;4.35;4.05;;;;;;;21.56;32.14;95847.88;5100884;28;20040;-48
2021/04/25 09:48:50;;;;;;;4.10;3.80;;;;;;;21.51;32.12;95851.16;5099023;28;20051;-47
2021/04/25 09:51:24;;;;;;;5.45;3.88;;;;;;;22.24;31.14;95848.56;5097092;28;20406;-48
2021/04/25 09:53:50;;;;;;;7.75;4.07;;;;;;;22.23;30.76;95841.56;5098154;28;20024;-48
2021/04/25 09:56:21;;;;;;;4.50;3.70;;;;;;;22.93;29.63;95838.13;5099818;28;20077;-47
2021/04/25 09:58:55;;;;;;;4.28;3.72;;;;;;;23.00;29.13;95832.72;5099221;28;20113;-49
2021/04/25 10:01:29;;;;;;;6.53;4.30;;;;;;;22.97;28.86;95823.22;5096486;28;20052;-47
2021/04/25 10:03:55;;;;;;;4.40;3.72;;;;;;;22.91;29.28;95823.28;5099738;28;20054;-46
2021/04/25 10:06:22;;;;;;;3.90;3.60;;;;;;;22.59;30.00;95818.72;5097546;28;20158;-45
2021/04/25 10:08:49;;;;;;;3.83;3.50;;;;;;;23.29;28.62;95825.09;5101249;28;20047;-47
2021/04/25 10:11:17;;;;;;;4.30;3.90;;;;;;;23.61;28.92;95823.16;5097848;28;20505;-47
2021/04/25 10:13:47;;;;;;;6.00;4.55;;;;;;;23.70;29.20;95825.56;5097736;28;20133;-46
2021/04/25 10:16:14;;;;;;;6.22;4.18;;;;;;;24.04;27.45;95817.97;5106698;28;20394;-47
2021/04/25 10:18:39;;;;;;;6.03;4.75;;;;;;;23.92;29.05;95820.56;5098835;28;20027;-46
2021/04/25 10:21:05;;;;;;;4.80;3.92;;;;;;;24.47;26.97;95818.94;5098827;28;20103;-48
2021/04/25 10:23:32;;;;;;;6.57;3.60;;;;;;;24.35;27.38;95816.19;5106321;28;20154;-47
2021/04/25 10:25:57;;;;;;;4.13;3.72;;;;;;;24.75;26.48;95815.66;5101860;28;20024;-46
2021/04/25 10:28:42;;;;;;;4.60;4.15;;;;;;;23.87;27.06;95823.09;5098945;28;20406;-45
2021/04/25 10:31:12;;;;;;;7.10;4.30;;;;;;;23.51;28.17;95822.00;5103180;28;20444;-48
2021/04/25 10:34:03;;;;;;;4.88;3.80;;;;;;;22.89;29.63;95823.50;5103708;28;20052;-48
2021/04/25 10:36:47;;;;;;;4.85;3.33;;;;;;;22.98;29.53;95822.19;5107155;28;20036;-48
2021/04/25 10:39:50;;;;;;;4.38;3.95;;;;;;;22.89;29.41;95831.53;5109449;28;20034;-64
2021/04/25 10:42:24;;;;;;;3.75;3.10;;;;;;;22.73;28.69;95828.34;5101641;28;20051;-49
2021/04/25 10:44:56;;;;;;;6.43;4.97;;;;;;;23.13;28.76;95838.00;5105802;28;20442;-47
2021/04/25 10:47:22;;;;;;;6.47;4.18;;;;;;;23.12;28.63;95833.66;5105265;28;20049;-49
2021/04/25 10:49:48;;;;;;;7.03;4.03;;;;;;;22.88;29.26;95841.47;5104093;28;20031;-48
2021/04/25 10:52:25;;;;;;;5.68;3.63;;;;;;;22.43;30.04;95834.25;5104235;28;20085;-47
2021/04/25 10:55:17;;;;;;;6.07;4.30;;;;;;;22.71;29.76;95829.59;5102907;28;20039;-46
2021/04/25 11:00:29;;;;;;;9.32;3.90;;;;;;;21.94;31.15;95820.41;5099369;28;20055;-45
2021/04/25 11:02:55;;;;;;;4.20;3.90;;;;;;;22.30;30.13;95818.22;5104052;28;20027;-44
2021/04/25 11:05:44;;;;;;;3.55;3.30;;;;;;;21.94;31.41;95804.31;5100691;28;20047;-45
2021/04/25 11:08:13;;;;;;;5.18;3.80;;;;;;;21.86;31.49;95808.06;5103788;28;20364;-47
2021/04/25 11:11:07;;;;;;;4.55;3.80;;;;;;;22.11;30.73;95801.19;5107535;28;20059;-50
2021/04/25 11:13:36;;;;;;;3.78;3.47;;;;;;;21.87;30.75;95795.50;5084345;28;20039;-52
2021/04/25 11:16:14;;;;;;;4.55;3.92;;;;;;;21.85;31.18;95801.03;5100489;28;20024;-59
2021/04/25 11:18:52;;;;;;;3.60;3.30;;;;;;;22.58;29.76;95801.81;5104433;28;20032;-59
2021/04/25 11:24:15;;;;;;;4.57;3.30;;;;;;;23.14;28.36;95802.06;5102870;28;20035;-46
2021/04/25 11:26:43;;;;;;;5.95;3.10;;;;;;;23.50;27.50;95798.88;5098837;28;20530;-45
2021/04/25 11:29:28;;;;;;;16.75;3.78;;;;;;;23.39;27.12;95797.72;5101291;28;20560;-60
2021/04/25 11:31:59;;;;;;;7.90;3.83;;;;;;;23.55;26.45;95797.16;5100679;28;20066;-60
2021/04/25 11:34:31;;;;;;;3.20;3.00;;;;;;;23.08;26.85;95784.13;5104678;28;20085;-59
2021/04/25 11:37:06;;;;;;;3.47;3.25;;;;;;;23.33;26.79;95786.03;5105058;28;20092;-59
2021/04/25 11:39:33;;;;;;;4.80;4.15;;;;;;;23.38;27.84;95779.97;5101097;28;20028;-60
2021/04/25 11:42:00;;;;;;;6.18;2.88;;;;;;;23.55;26.95;95777.56;5101682;28;20056;-60
2021/04/25 11:44:30;;;;;;;5.30;3.05;;;;;;;23.55;27.66;95764.94;5099324;28;20062;-60